CheckWX is a tool to help pilots better visualize weather data.  It is not intended as a substitute for an official pre-flight weather briefing.

21:07:44 UTC

KP69 METAR
Lowell Airport
Idaho, USA
Current

2 hours ago

KP69 181852Z AUTO VRB06KT M01/M10 A3034 RMK AO1 SLP301 T10111100 $
Observed
Feb-18 @ 18:52 UTC
Wind
  • Variable at 6 KTS
Visibility
Temperature
-1°C / 30°F
Dewpoint
-10°C / 14°F
Humidity
51%
Altimeter
30.34" Hg
Pressure
1030.1 hPa
Previous

4 hours ago

KP69 181652Z AUTO 13005KT M02/M08 A3033 RMK AO1 SLP297 T10221083 $
Observed
Feb-18 @ 16:52 UTC
Wind
  • 130° at 5 KTS
Visibility
Temperature
-2°C / 28°F
Dewpoint
-8°C / 18°F
Humidity
64%
Altimeter
30.33" Hg
Pressure
1029.7 hPa
Previous

9 hours ago

KP69 181152Z AUTO 34006KT M03/M07 A3023 RMK AO1 SLP262 7//// T10331072 11011 21033 52006 $
Observed
Feb-18 @ 11:52 UTC
Wind
  • 340° at 6 KTS
Visibility
Temperature
-3°C / 27°F
Dewpoint
-7°C / 19°F
Humidity
74%
Altimeter
30.23" Hg
Pressure
1026.2 hPa